Aurora, NC

4:58 PM EDT on September 01, 2014 (GMT -0400)
APRSWXNET Aurora NC US | Change Station
CLOSE
Current Station
Personal Weather Station
Location: Aurora, NC
Elevation: 6 ft
Nearby Weather Stations

Elev 6 ft 35.36 °N, 76.73 °W | Updated 33 minutes ago

Partly Cloudy
Partly Cloudy
89 °F
Feels Like 105 °F
N
1
Wind Variable Wind from SW
Gusts 6.0 mph

Today
High -- | Low -- °F
--% Chance of Precip.
Yesterday
High -- | Low -- °F
Precip. -- in
6:39 AM 7:34 PM
Waxing Crescent, 44% visible
Pressure 30.04 in
Visibility 10.0 miles
Clouds Clear
Heat Index 105 °F
Dew Point 79 °F
Humidity 73%
Rainfall 0.00 in
Snow Depth Not available.
UV 3 out of 12
Pollen 9.30 out of 12
Air Quality Not available.
Flu Activity Not available.
METAR KEWN 012054Z 20008KT 10SM CLR 33/25 A3004 RMK AO2 SLP172 T03330250 56013

More Conditions Fewer Conditions

Pressure 30.04 in
Visibility 10.0 miles
Clouds Clear
Heat Index 105 °F
Dew Point 79 °F
Humidity 73%
Rainfall 0.00 in
Snow Depth Not available.
UV 3 out of 12
Pollen 9.30 out of 12
Air Quality Not available.
Flu Activity Not available.
METAR KEWN 012054Z 20008KT 10SM CLR 33/25 A3004 RMK AO2 SLP172 T03330250 56013

More Conditions Fewer Conditions

10-Day Weather Forecast

Almanac

Astronomy

Sep. 01, 2014 Rise Set
Actual Time 6:39 AM EDT 7:34 PM EDT
Civil Twilight 6:13 AM EDT 8:00 PM EDT
Nautical Twilight 5:42 AM EDT 8:30 PM EDT
Astronomical Twilight 5:11 AM EDT 9:02 PM EDT
Moon 1:08 PM EDT 11:48 PM EDT
Length of Visible Light 13h 46m
Length of Day
12h 54m
Tomorrow will be 2m 7s shorter.
Waxing Crescent, 44% of the Moon is Illuminated
Today
Waxing Crescent
Sep 2
First Quarter
Sep 8
Full
Sep 15
Last Quarter
Sep 24
New

Today's Extremes

State Highs State Lows

Community

WunderPhotos

Upload Photos

1,749,404 photos uploaded!

WunderBlogs® & News

Nearby

Snow Depth

Station Depth Elevation
No new snow has been reported.

Earthquake Activity

City Distance Mag. Time & Date
No recent earthquake activity has been reported nearby.
Minimum magnitude displayed is 2.5.

Coastal Water Temperatures

Place Temperature
No Stations Reporting

Nearby Weather Stations